Time;durP1;ratioP1;P1;durP2;ratioP2;P2;SDS_P1;SDS_P2;PMS_P1;PMS_P2;Temp;Humidity;BMP_temperature;BMP_pressure;BME280_temperature;BME280_humidity;BME280_pressure;Samples;Min_cycle;Max_cycle;Signal;HPM_P1;HPM_P2
2023/02/01 00:01:26;;;;;;;21.25;4.35;;;;;;;;;;5114741;28;20199;-66
2023/02/01 00:03:53;;;;;;;4.18;2.63;;;;;;;;;;5114518;28;20638;-65
2023/02/01 00:06:20;;;;;;;15.07;3.75;;;;;;;;;;5114588;28;20206;-65
2023/02/01 00:08:48;;;;;;;12.40;4.47;;;;;;;;;;5114562;28;20547;-65
2023/02/01 00:11:16;;;;;;;11.48;3.60;;;;;;;;;;5101231;28;20650;-66
2023/02/01 00:13:43;;;;;;;21.75;4.68;;;;;;;;;;5111510;28;20203;-66
2023/02/01 00:16:13;;;;;;;10.77;4.18;;;;;;;;;;5112748;28;20224;-66
2023/02/01 00:18:40;;;;;;;14.75;5.65;;;;;;;;;;5112666;28;20692;-66
2023/02/01 00:21:07;;;;;;;9.32;3.75;;;;;;;;;;5113145;28;20189;-66
2023/02/01 00:23:34;;;;;;;17.67;5.55;;;;;;;;;;5112857;28;20286;-66
2023/02/01 00:26:02;;;;;;;14.50;4.00;;;;;;;;;;5113114;28;20203;-66
2023/02/01 00:28:30;;;;;;;21.65;4.35;;;;;;;;;;5113218;28;20204;-65
2023/02/01 00:30:58;;;;;;;13.98;5.18;;;;;;;;;;5113175;28;20661;-66
2023/02/01 00:33:25;;;;;;;25.52;5.57;;;;;;;;;;5113592;28;20195;-65
2023/02/01 00:35:57;;;;;;;19.92;4.95;;;;;;;;;;5113435;28;20684;-66
2023/02/01 00:38:24;;;;;;;17.88;5.07;;;;;;;;;;5113435;28;20184;-66
2023/02/01 00:40:51;;;;;;;10.57;4.28;;;;;;;;;;5113894;28;20282;-65
2023/02/01 00:43:18;;;;;;;19.73;6.35;;;;;;;;;;5114022;28;20206;-65
2023/02/01 00:45:48;;;;;;;25.48;5.22;;;;;;;;;;5114008;28;20203;-65
2023/02/01 00:48:15;;;;;;;9.73;4.95;;;;;;;;;;5113527;28;20206;-65
2023/02/01 00:50:43;;;;;;;11.52;4.90;;;;;;;;;;5113616;28;20194;-65
2023/02/01 00:53:10;;;;;;;7.22;4.72;;;;;;;;;;5113652;28;20557;-65
2023/02/01 00:55:37;;;;;;;17.23;6.18;;;;;;;;;;5113844;28;20191;-65
2023/02/01 00:58:05;;;;;;;14.43;5.07;;;;;;;;;;5131040;28;20223;-66
2023/02/01 01:00:32;;;;;;;15.30;4.95;;;;;;;;;;5134076;28;20208;-65
2023/02/01 01:03:01;;;;;;;11.88;4.88;;;;;;;;;;5120184;28;20747;-65
2023/02/01 01:05:28;;;;;;;16.05;4.75;;;;;;;;;;5113452;28;20194;-65
2023/02/01 01:07:55;;;;;;;13.30;5.75;;;;;;;;;;5113645;28;20257;-65
2023/02/01 01:10:23;;;;;;;14.50;5.43;;;;;;;;;;5133194;28;20206;-65
2023/02/01 01:12:51;;;;;;;15.93;5.53;;;;;;;;;;5134109;28;20203;-66
2023/02/01 01:15:18;;;;;;;14.82;5.07;;;;;;;;;;5134410;28;20285;-65
2023/02/01 01:17:45;;;;;;;16.25;5.35;;;;;;;;;;5132821;28;20229;-65
2023/02/01 01:20:14;;;;;;;16.85;4.10;;;;;;;;;;5133673;28;20278;-65
2023/02/01 01:22:41;;;;;;;12.07;5.07;;;;;;;;;;5134019;28;20556;-66
2023/02/01 01:25:09;;;;;;;12.70;4.70;;;;;;;;;;5134114;28;20283;-65
2023/02/01 01:27:36;;;;;;;24.58;4.82;;;;;;;;;;5133831;27;20631;-65
2023/02/01 01:30:03;;;;;;;13.48;5.30;;;;;;;;;;5137650;27;20196;-66
2023/02/01 01:32:30;;;;;;;16.17;5.35;;;;;;;;;;5137922;27;20205;-66
2023/02/01 01:34:57;;;;;;;23.20;5.18;;;;;;;;;;5137661;27;20191;-66
2023/02/01 01:37:26;;;;;;;17.40;4.82;;;;;;;;;;5137448;27;20212;-66
2023/02/01 01:39:55;;;;;;;15.88;5.30;;;;;;;;;;5138112;27;20540;-66
2023/02/01 01:42:22;;;;;;;15.55;4.38;;;;;;;;;;5137559;27;20235;-65
2023/02/01 01:45:00;;;;;;;10.93;4.93;;;;;;;;;;5137696;27;20203;-65
2023/02/01 01:47:28;;;;;;;21.98;5.63;;;;;;;;;;5137447;27;20222;-66
2023/02/01 01:49:55;;;;;;;11.20;3.80;;;;;;;;;;5137342;27;20205;-65
2023/02/01 01:52:22;;;;;;;11.75;3.75;;;;;;;;;;5137319;27;20199;-65
2023/02/01 01:54:53;;;;;;;20.75;5.45;;;;;;;;;;5137576;27;20224;-65
2023/02/01 01:57:21;;;;;;;16.67;4.72;;;;;;;;;;5137827;27;20241;-65
2023/02/01 01:59:50;;;;;;;12.63;4.60;;;;;;;;;;5137480;27;20190;-66
2023/02/01 02:02:17;;;;;;;11.63;3.97;;;;;;;;;;5129519;27;20287;-66
2023/02/01 02:04:45;;;;;;;14.32;4.75;;;;;;;;;;5116434;28;20199;-65
2023/02/01 02:07:13;;;;;;;17.10;3.92;;;;;;;;;;5116907;28;20286;-65
2023/02/01 02:09:42;;;;;;;15.80;4.28;;;;;;;;;;5120068;27;20556;-65
2023/02/01 02:12:11;;;;;;;11.38;4.45;;;;;;;;;;5117040;28;20195;-65
2023/02/01 02:14:38;;;;;;;9.68;3.35;;;;;;;;;;5117154;28;20195;-65
2023/02/01 02:17:13;;;;;;;16.10;4.45;;;;;;;;;;5115922;28;20306;-66
2023/02/01 02:19:51;;;;;;;11.95;3.70;;;;;;;;;;5116331;28;20220;-66
2023/02/01 02:22:39;;;;;;;10.75;3.80;;;;;;;;;;5116093;28;20187;-65
2023/02/01 02:25:27;;;;;;;19.25;3.63;;;;;;;;;;5109996;28;20607;-65
2023/02/01 02:27:58;;;;;;;20.17;4.13;;;;;;;;;;5116587;28;20203;-65
2023/02/01 02:30:40;;;;;;;17.10;4.45;;;;;;;;;;5116385;28;20188;-65
2023/02/01 02:33:40;;;;;;;19.15;4.28;;;;;;;;;;5116223;28;20651;-65
2023/02/01 02:36:11;;;;;;;13.65;3.75;;;;;;;;;;5115564;28;20185;-66
2023/02/01 02:38:43;;;;;;;14.00;3.85;;;;;;;;;;5115418;28;20184;-66
2023/02/01 02:41:13;;;;;;;8.82;3.20;;;;;;;;;;5116137;28;20192;-65
2023/02/01 02:49:36;;;;;;;25.83;3.88;;;;;;;;;;5115818;28;20182;-66
2023/02/01 02:54:55;;;;;;;12.10;2.92;;;;;;;;;;5115781;28;20187;-66
2023/02/01 03:05:42;;;;;;;14.68;3.78;;;;;;;;;;5115468;28;20279;-65
2023/02/01 03:08:13;;;;;;;28.83;5.78;;;;;;;;;;5115827;27;20205;-66
2023/02/01 03:10:44;;;;;;;12.13;4.50;;;;;;;;;;5135600;27;20202;-66
2023/02/01 03:13:12;;;;;;;12.98;3.65;;;;;;;;;;5135936;27;20183;-66
2023/02/01 03:15:41;;;;;;;15.73;3.92;;;;;;;;;;5135617;27;20202;-67
2023/02/01 03:18:12;;;;;;;16.02;4.05;;;;;;;;;;5135712;27;20220;-65
2023/02/01 03:20:42;;;;;;;12.55;3.33;;;;;;;;;;5135716;27;20186;-65
2023/02/01 03:23:10;;;;;;;13.95;4.40;;;;;;;;;;5135948;27;20191;-65
2023/02/01 03:25:39;;;;;;;15.55;5.72;;;;;;;;;;5135512;27;20641;-65
2023/02/01 03:28:08;;;;;;;5.82;2.25;;;;;;;;;;5135451;27;20198;-65
2023/02/01 03:30:37;;;;;;;10.90;4.30;;;;;;;;;;5135259;27;20193;-66
2023/02/01 03:33:11;;;;;;;10.32;3.20;;;;;;;;;;5136055;27;20226;-65
2023/02/01 03:35:41;;;;;;;10.45;4.25;;;;;;;;;;5135775;27;20274;-65
2023/02/01 03:38:13;;;;;;;10.50;3.20;;;;;;;;;;5136022;27;20229;-65
2023/02/01 03:40:43;;;;;;;6.13;3.67;;;;;;;;;;5135544;27;20211;-65
2023/02/01 03:43:13;;;;;;;13.73;3.65;;;;;;;;;;5135852;27;20189;-65
2023/02/01 03:45:42;;;;;;;16.80;3.28;;;;;;;;;;5135044;27;20213;-66
2023/02/01 03:48:10;;;;;;;10.02;3.15;;;;;;;;;;5135374;27;20203;-66
2023/02/01 03:50:38;;;;;;;14.88;3.75;;;;;;;;;;5134766;27;20201;-65
2023/02/01 03:53:08;;;;;;;7.60;2.95;;;;;;;;;;5135117;27;20198;-65
2023/02/01 03:55:36;;;;;;;12.50;3.20;;;;;;;;;;5135360;27;20278;-66
2023/02/01 03:58:08;;;;;;;9.18;3.28;;;;;;;;;;5135083;27;20242;-65
2023/02/01 04:00:35;;;;;;;10.43;3.35;;;;;;;;;;5135524;27;20187;-65
2023/02/01 04:03:03;;;;;;;13.68;3.15;;;;;;;;;;5120850;27;20196;-66
2023/02/01 04:05:31;;;;;;;19.50;3.72;;;;;;;;;;5114432;28;20285;-66
2023/02/01 04:07:58;;;;;;;4.07;2.47;;;;;;;;;;5114129;28;20200;-67
2023/02/01 04:10:25;;;;;;;13.05;4.07;;;;;;;;;;5117399;27;20675;-66
2023/02/01 04:12:52;;;;;;;8.25;2.50;;;;;;;;;;5114340;28;20195;-69
2023/02/01 04:15:21;;;;;;;9.95;3.05;;;;;;;;;;5114338;28;20669;-66
2023/02/01 04:17:48;;;;;;;9.02;3.03;;;;;;;;;;5113907;28;20226;-65
2023/02/01 04:20:15;;;;;;;13.80;3.35;;;;;;;;;;5113913;28;20196;-65
2023/02/01 04:22:43;;;;;;;17.65;4.10;;;;;;;;;;5114297;28;20282;-65
2023/02/01 04:25:10;;;;;;;14.57;3.72;;;;;;;;;;5114148;28;20191;-66
2023/02/01 04:27:37;;;;;;;8.95;3.95;;;;;;;;;;5114415;28;20207;-65
2023/02/01 04:30:09;;;;;;;8.60;3.17;;;;;;;;;;5114046;28;20194;-66
2023/02/01 04:32:37;;;;;;;7.25;2.20;;;;;;;;;;5114376;28;20221;-65
2023/02/01 04:35:05;;;;;;;11.27;3.78;;;;;;;;;;5114452;28;20663;-66
2023/02/01 04:37:32;;;;;;;20.48;4.85;;;;;;;;;;5113612;28;20230;-65
2023/02/01 04:39:59;;;;;;;8.63;3.00;;;;;;;;;;5114342;28;20199;-65
2023/02/01 04:42:27;;;;;;;6.47;2.95;;;;;;;;;;5113944;28;20189;-65
2023/02/01 04:44:54;;;;;;;21.63;3.95;;;;;;;;;;5113927;28;20197;-67
2023/02/01 04:47:21;;;;;;;24.48;4.65;;;;;;;;;;5113583;28;20289;-65
2023/02/01 04:49:49;;;;;;;10.20;3.67;;;;;;;;;;5113630;28;20199;-65
2023/02/01 04:52:17;;;;;;;13.38;3.10;;;;;;;;;;5113489;28;20623;-66
2023/02/01 04:54:44;;;;;;;6.35;2.97;;;;;;;;;;5114604;28;20282;-66
2023/02/01 04:57:13;;;;;;;10.43;3.05;;;;;;;;;;5113529;28;20230;-65
2023/02/01 04:59:40;;;;;;;18.02;3.58;;;;;;;;;;5127151;28;20419;-65
2023/02/01 05:02:07;;;;;;;9.02;3.28;;;;;;;;;;5133745;27;20195;-66
2023/02/01 05:04:34;;;;;;;9.82;3.53;;;;;;;;;;5136648;27;20674;-65
2023/02/01 05:07:03;;;;;;;11.32;3.47;;;;;;;;;;5138051;27;20198;-65
2023/02/01 05:09:30;;;;;;;10.13;2.90;;;;;;;;;;5136932;27;20198;-66
2023/02/01 05:14:47;;;;;;;17.65;3.92;;;;;;;;;;5137740;27;20221;-65
2023/02/01 05:17:14;;;;;;;13.35;3.85;;;;;;;;;;5137896;27;20210;-66
2023/02/01 05:19:42;;;;;;;14.90;4.25;;;;;;;;;;5138044;27;20204;-67
2023/02/01 05:22:10;;;;;;;5.30;2.55;;;;;;;;;;5137515;27;20199;-66
2023/02/01 05:24:37;;;;;;;9.60;3.20;;;;;;;;;;5137972;27;20247;-65
2023/02/01 05:27:05;;;;;;;12.02;4.75;;;;;;;;;;5137700;27;20207;-65
2023/02/01 05:29:32;;;;;;;13.48;4.07;;;;;;;;;;5137564;27;20199;-65
2023/02/01 05:31:59;;;;;;;14.82;4.18;;;;;;;;;;5137903;27;20195;-65
2023/02/01 05:34:26;;;;;;;10.90;3.30;;;;;;;;;;5137569;27;20199;-66
2023/02/01 05:36:54;;;;;;;12.27;4.20;;;;;;;;;;5137743;27;20196;-65
2023/02/01 05:39:22;;;;;;;13.52;4.28;;;;;;;;;;5137256;27;20318;-65
2023/02/01 05:41:49;;;;;;;7.68;3.28;;;;;;;;;;5137375;27;20544;-65
2023/02/01 05:44:16;;;;;;;18.42;4.38;;;;;;;;;;5137036;27;20676;-64
2023/02/01 05:46:44;;;;;;;11.55;3.95;;;;;;;;;;5137175;27;20199;-62
2023/02/01 05:49:11;;;;;;;14.43;4.03;;;;;;;;;;5137612;27;20203;-63
2023/02/01 05:51:38;;;;;;;11.98;4.30;;;;;;;;;;5137406;27;20195;-63
2023/02/01 05:54:05;;;;;;;13.57;3.90;;;;;;;;;;5137428;27;20191;-63
2023/02/01 05:56:34;;;;;;;12.25;3.97;;;;;;;;;;5136463;27;20219;-63
2023/02/01 05:59:01;;;;;;;10.15;3.63;;;;;;;;;;5136266;28;20213;-63
2023/02/01 06:01:28;;;;;;;9.85;4.15;;;;;;;;;;5135545;28;20193;-62
2023/02/01 06:03:55;;;;;;;7.28;3.30;;;;;;;;;;5135767;28;20195;-62
2023/02/01 06:06:23;;;;;;;8.05;2.58;;;;;;;;;;5135730;28;20206;-64
2023/02/01 06:08:50;;;;;;;12.05;4.57;;;;;;;;;;5135743;28;20200;-65
2023/02/01 06:11:17;;;;;;;14.65;3.90;;;;;;;;;;5135691;28;20199;-64
2023/02/01 06:13:45;;;;;;;10.32;2.72;;;;;;;;;;5135271;27;20198;-64
2023/02/01 06:16:15;;;;;;;11.00;3.05;;;;;;;;;;5136103;28;20202;-65
2023/02/01 06:18:42;;;;;;;6.20;3.50;;;;;;;;;;5136246;28;20222;-65
2023/02/01 06:21:10;;;;;;;10.50;2.85;;;;;;;;;;5135884;28;20597;-66
2023/02/01 06:23:37;;;;;;;13.27;4.15;;;;;;;;;;5135531;28;20600;-65
2023/02/01 06:26:05;;;;;;;15.48;3.65;;;;;;;;;;5135439;28;20214;-63
2023/02/01 06:28:33;;;;;;;11.82;4.00;;;;;;;;;;5135378;28;20203;-64
2023/02/01 06:31:06;;;;;;;15.75;4.03;;;;;;;;;;5135763;28;20303;-64
2023/02/01 06:33:34;;;;;;;16.80;5.22;;;;;;;;;;5135780;28;20185;-64
2023/02/01 06:36:03;;;;;;;12.30;3.70;;;;;;;;;;5135701;28;20612;-64
2023/02/01 06:38:30;;;;;;;8.68;4.40;;;;;;;;;;5135504;28;20223;-64
2023/02/01 06:40:58;;;;;;;20.00;4.30;;;;;;;;;;5135662;28;20192;-64
2023/02/01 06:43:26;;;;;;;19.73;4.45;;;;;;;;;;5135275;28;20293;-64
2023/02/01 06:45:53;;;;;;;12.38;2.97;;;;;;;;;;5135513;28;20194;-64
2023/02/01 06:48:22;;;;;;;17.63;4.03;;;;;;;;;;5135386;28;20626;-64
2023/02/01 06:50:49;;;;;;;16.80;4.45;;;;;;;;;;5135508;28;20197;-64
2023/02/01 06:53:16;;;;;;;11.82;4.25;;;;;;;;;;5135454;28;20285;-64
2023/02/01 06:55:52;;;;;;;17.15;4.50;;;;;;;;;;5135488;28;20199;-64
2023/02/01 06:58:19;;;;;;;10.90;4.03;;;;;;;;;;5097784;27;1080609;-65
2023/02/01 07:00:46;;;;;;;8.07;4.70;;;;;;;;;;5136854;27;20632;-64
2023/02/01 07:03:14;;;;;;;13.93;3.90;;;;;;;;;;5136114;27;20243;-65
2023/02/01 07:05:42;;;;;;;18.75;4.60;;;;;;;;;;5136269;27;20542;-64
2023/02/01 07:08:09;;;;;;;9.73;4.22;;;;;;;;;;5135688;27;20202;-64
2023/02/01 07:10:36;;;;;;;15.43;4.72;;;;;;;;;;5136427;27;20201;-64
2023/02/01 07:13:04;;;;;;;15.85;3.20;;;;;;;;;;5136187;27;20194;-65
2023/02/01 07:15:31;;;;;;;12.40;3.85;;;;;;;;;;5135670;27;20657;-64
2023/02/01 07:17:58;;;;;;;20.67;4.18;;;;;;;;;;5136073;27;20216;-64
2023/02/01 07:20:25;;;;;;;12.73;3.83;;;;;;;;;;5136107;27;20192;-64
2023/02/01 07:22:57;;;;;;;16.05;3.33;;;;;;;;;;5135460;27;20206;-64
2023/02/01 07:25:24;;;;;;;13.45;4.38;;;;;;;;;;5135926;27;20187;-65
2023/02/01 07:27:52;;;;;;;14.43;3.47;;;;;;;;;;5134768;27;20192;-65
2023/02/01 07:30:19;;;;;;;22.27;5.40;;;;;;;;;;5135744;27;20287;-64
2023/02/01 07:32:46;;;;;;;10.52;3.08;;;;;;;;;;5135556;27;20202;-64
2023/02/01 07:35:14;;;;;;;13.82;3.80;;;;;;;;;;5135578;27;20202;-65
2023/02/01 07:37:41;;;;;;;11.43;3.15;;;;;;;;;;5135041;27;20704;-65
2023/02/01 07:40:11;;;;;;;10.60;3.22;;;;;;;;;;5135520;27;20201;-64
2023/02/01 07:42:38;;;;;;;13.88;4.18;;;;;;;;;;5135352;27;20195;-64
2023/02/01 07:45:05;;;;;;;10.82;4.35;;;;;;;;;;5135480;27;20195;-63
2023/02/01 07:47:33;;;;;;;7.20;3.03;;;;;;;;;;5135031;27;20196;-64
2023/02/01 07:50:00;;;;;;;19.60;3.78;;;;;;;;;;5135895;27;20198;-64
2023/02/01 07:52:29;;;;;;;14.38;4.55;;;;;;;;;;5135213;27;20206;-67
2023/02/01 07:54:56;;;;;;;16.23;4.13;;;;;;;;;;5135227;27;20205;-65
2023/02/01 07:57:25;;;;;;;13.25;3.58;;;;;;;;;;5135277;27;20317;-65
2023/02/01 08:02:37;;;;;;;6.65;3.75;;;;;;;;;;5134908;27;20174;-66
2023/02/01 08:05:05;;;;;;;24.60;5.57;;;;;;;;;;5135052;27;20191;-65
2023/02/01 08:07:32;;;;;;;14.10;3.58;;;;;;;;;;5134685;27;20196;-64
2023/02/01 08:10:00;;;;;;;15.40;4.05;;;;;;;;;;5134545;27;20640;-66
2023/02/01 08:12:28;;;;;;;21.08;3.58;;;;;;;;;;5134944;27;20196;-65
2023/02/01 08:14:56;;;;;;;17.15;5.43;;;;;;;;;;5134525;27;20675;-65
2023/02/01 08:17:23;;;;;;;11.60;4.40;;;;;;;;;;5134919;27;20223;-65
2023/02/01 08:19:50;;;;;;;12.90;4.43;;;;;;;;;;5134647;27;20290;-65
2023/02/01 08:22:17;;;;;;;15.48;4.28;;;;;;;;;;5135529;27;20195;-64
2023/02/01 08:24:44;;;;;;;37.45;5.05;;;;;;;;;;5134763;27;20191;-65
2023/02/01 08:27:12;;;;;;;10.80;3.05;;;;;;;;;;5134452;27;20206;-65
2023/02/01 08:29:40;;;;;;;8.52;3.90;;;;;;;;;;5134354;27;20249;-65
2023/02/01 08:32:08;;;;;;;12.38;4.55;;;;;;;;;;5134666;27;20530;-63
2023/02/01 08:34:35;;;;;;;14.50;4.00;;;;;;;;;;5134528;27;20195;-63
2023/02/01 08:37:02;;;;;;;20.00;4.15;;;;;;;;;;5134478;27;20194;-62
2023/02/01 08:39:29;;;;;;;13.35;3.22;;;;;;;;;;5134086;27;20214;-64
2023/02/01 08:44:43;;;;;;;14.05;4.30;;;;;;;;;;5134290;27;20197;-65
2023/02/01 08:47:11;;;;;;;12.40;3.83;;;;;;;;;;5134202;27;20196;-65
2023/02/01 08:49:38;;;;;;;14.48;4.07;;;;;;;;;;5134371;27;20707;-65
2023/02/01 08:52:05;;;;;;;12.40;3.65;;;;;;;;;;5134410;28;20195;-65
2023/02/01 08:54:32;;;;;;;10.80;4.57;;;;;;;;;;5134575;28;20202;-65
2023/02/01 08:56:59;;;;;;;12.68;3.85;;;;;;;;;;5134292;28;20229;-65
2023/02/01 08:59:27;;;;;;;17.55;4.32;;;;;;;;;;5133864;28;20214;-65
2023/02/01 09:01:55;;;;;;;13.52;4.13;;;;;;;;;;5133151;28;20281;-65
2023/02/01 09:04:23;;;;;;;19.45;4.57;;;;;;;;;;5134309;28;20223;-65
2023/02/01 09:06:50;;;;;;;10.63;4.40;;;;;;;;;;5134364;28;20203;-65
2023/02/01 09:09:17;;;;;;;13.90;3.60;;;;;;;;;;5134248;28;20203;-65
2023/02/01 09:11:44;;;;;;;12.32;4.22;;;;;;;;;;5134239;28;20199;-65
2023/02/01 09:14:11;;;;;;;18.85;4.78;;;;;;;;;;5134358;28;20195;-65
2023/02/01 09:16:39;;;;;;;10.27;3.65;;;;;;;;;;5134493;28;20198;-65
2023/02/01 09:19:07;;;;;;;12.85;3.83;;;;;;;;;;5133971;28;20257;-65
2023/02/01 09:21:34;;;;;;;16.33;4.72;;;;;;;;;;5134459;28;20217;-65
2023/02/01 09:24:02;;;;;;;16.20;4.35;;;;;;;;;;5133993;28;20207;-65
2023/02/01 09:26:29;;;;;;;8.43;4.07;;;;;;;;;;5133844;28;20196;-65
2023/02/01 09:28:56;;;;;;;12.68;4.63;;;;;;;;;;5133715;28;20293;-65
2023/02/01 09:31:23;;;;;;;10.60;3.20;;;;;;;;;;5134259;28;20191;-65
2023/02/01 09:33:50;;;;;;;9.73;3.53;;;;;;;;;;5134390;28;20206;-66
2023/02/01 09:36:19;;;;;;;12.85;4.45;;;;;;;;;;5134170;28;20188;-65
2023/02/01 09:38:46;;;;;;;4.65;2.95;;;;;;;;;;5134037;28;20216;-65
2023/02/01 09:41:22;;;;;;;17.45;5.20;;;;;;;;;;5133663;28;20205;-65
2023/02/01 09:43:55;;;;;;;14.40;3.92;;;;;;;;;;5133789;28;20632;-65
2023/02/01 09:46:24;;;;;;;11.90;4.05;;;;;;;;;;5133545;28;20183;-63
2023/02/01 09:48:54;;;;;;;6.68;3.80;;;;;;;;;;5133962;27;20228;-64
2023/02/01 09:51:25;;;;;;;5.90;2.90;;;;;;;;;;5137885;27;20210;-65
2023/02/01 09:53:57;;;;;;;7.88;3.80;;;;;;;;;;5137368;27;20206;-63
2023/02/01 09:56:26;;;;;;;17.45;3.47;;;;;;;;;;5136951;27;20699;-63
2023/02/01 09:58:57;;;;;;;14.48;3.72;;;;;;;;;;5137804;27;20572;-65
2023/02/01 10:01:25;;;;;;;11.63;3.80;;;;;;;;;;5137579;27;20289;-63
2023/02/01 10:03:57;;;;;;;16.05;3.95;;;;;;;;;;5137427;27;20240;-63
2023/02/01 10:06:32;;;;;;;13.82;3.83;;;;;;;;;;5137413;27;20233;-65
2023/02/01 10:09:14;;;;;;;13.07;3.15;;;;;;;;;;5137695;27;20194;-63
2023/02/01 10:11:51;;;;;;;17.65;4.78;;;;;;;;;;5133564;27;20210;-65
2023/02/01 10:14:26;;;;;;;23.70;4.22;;;;;;;;;;5137349;27;20180;-65
2023/02/01 10:16:57;;;;;;;14.52;3.58;;;;;;;;;;5137653;27;20206;-65
2023/02/01 10:19:28;;;;;;;17.95;5.30;;;;;;;;;;5137115;27;20256;-65
2023/02/01 10:21:59;;;;;;;11.27;3.78;;;;;;;;;;5137088;27;20547;-65
2023/02/01 10:24:38;;;;;;;17.23;5.65;;;;;;;;;;5137437;27;20271;-65
2023/02/01 10:27:13;;;;;;;9.23;3.80;;;;;;;;;;5136558;27;20196;-65
2023/02/01 10:29:41;;;;;;;13.68;4.93;;;;;;;;;;5136925;27;20195;-66
2023/02/01 10:32:14;;;;;;;13.38;4.97;;;;;;;;;;5137322;27;20287;-65
2023/02/01 10:34:42;;;;;;;11.15;4.55;;;;;;;;;;5137134;27;20188;-66
2023/02/01 10:37:18;;;;;;;10.80;3.10;;;;;;;;;;5136824;27;20200;-65
2023/02/01 10:39:46;;;;;;;9.63;4.82;;;;;;;;;;5136818;27;20246;-65
2023/02/01 10:42:13;;;;;;;6.88;2.95;;;;;;;;;;5136369;27;20196;-64
2023/02/01 10:44:45;;;;;;;13.93;3.78;;;;;;;;;;5136780;27;20199;-63
2023/02/01 10:47:12;;;;;;;4.70;2.78;;;;;;;;;;5136618;27;20222;-64
2023/02/01 10:49:42;;;;;;;15.00;5.10;;;;;;;;;;5136637;27;20203;-65
2023/02/01 10:52:15;;;;;;;20.92;4.20;;;;;;;;;;5136379;27;20249;-65
2023/02/01 10:54:42;;;;;;;18.13;4.57;;;;;;;;;;5136188;27;20646;-64
2023/02/01 10:57:10;;;;;;;17.80;4.65;;;;;;;;;;5136313;27;20311;-63
2023/02/01 10:59:38;;;;;;;7.95;3.25;;;;;;;;;;5135996;27;20216;-66
2023/02/01 11:02:14;;;;;;;16.08;4.60;;;;;;;;;;5135127;27;20195;-65
2023/02/01 11:04:42;;;;;;;18.55;4.45;;;;;;;;;;5136785;27;20187;-65
2023/02/01 11:07:14;;;;;;;19.00;5.35;;;;;;;;;;5135911;27;20196;-65
2023/02/01 11:09:49;;;;;;;15.20;3.40;;;;;;;;;;5136669;27;20217;-65
2023/02/01 11:12:25;;;;;;;10.57;4.32;;;;;;;;;;5136168;27;20187;-66
2023/02/01 11:14:52;;;;;;;27.70;5.00;;;;;;;;;;5136211;27;20192;-65
2023/02/01 11:17:26;;;;;;;7.90;3.72;;;;;;;;;;5135738;27;20192;-65
2023/02/01 11:20:00;;;;;;;8.98;4.03;;;;;;;;;;5136590;27;20211;-65
2023/02/01 11:22:29;;;;;;;11.60;4.13;;;;;;;;;;5135850;27;20201;-65
2023/02/01 11:24:58;;;;;;;14.35;4.88;;;;;;;;;;5136526;27;20196;-64
2023/02/01 11:27:26;;;;;;;11.43;4.68;;;;;;;;;;5136048;27;20203;-62
2023/02/01 11:29:54;;;;;;;14.13;4.90;;;;;;;;;;5136320;27;20533;-63
2023/02/01 11:32:22;;;;;;;13.57;4.75;;;;;;;;;;5135697;27;20199;-63
2023/02/01 11:34:53;;;;;;;11.95;5.28;;;;;;;;;;5135922;27;20194;-63
2023/02/01 11:37:22;;;;;;;10.32;4.10;;;;;;;;;;5135367;27;20654;-63
2023/02/01 11:39:55;;;;;;;15.45;5.63;;;;;;;;;;5135159;27;20229;-63
2023/02/01 11:42:24;;;;;;;19.10;5.25;;;;;;;;;;5135657;27;20188;-63
2023/02/01 11:44:52;;;;;;;11.82;4.63;;;;;;;;;;5135457;27;20206;-63
2023/02/01 11:47:26;;;;;;;20.23;5.80;;;;;;;;;;5135093;27;20253;-63
2023/02/01 11:49:54;;;;;;;12.43;4.82;;;;;;;;;;5135478;27;20268;-63
2023/02/01 11:52:36;;;;;;;17.45;5.35;;;;;;;;;;5135242;27;20205;-63
2023/02/01 11:55:11;;;;;;;15.00;5.70;;;;;;;;;;5135798;27;20187;-63
2023/02/01 11:57:52;;;;;;;13.90;5.50;;;;;;;;;;5135165;27;20240;-63
2023/02/01 12:00:28;;;;;;;5.50;3.10;;;;;;;;;;5134961;27;20215;-63
2023/02/01 12:03:14;;;;;;;15.70;4.82;;;;;;;;;;5135210;27;20192;-63
2023/02/01 12:05:49;;;;;;;13.63;4.78;;;;;;;;;;5135129;27;20202;-63
2023/02/01 12:08:26;;;;;;;10.38;4.97;;;;;;;;;;5135117;27;20184;-64
2023/02/01 12:10:58;;;;;;;15.73;4.35;;;;;;;;;;5134804;27;20182;-63
2023/02/01 12:13:38;;;;;;;8.80;3.58;;;;;;;;;;5134300;27;20191;-65
2023/02/01 12:16:11;;;;;;;11.43;4.32;;;;;;;;;;5134855;27;20196;-64
2023/02/01 12:18:47;;;;;;;16.30;5.15;;;;;;;;;;5134696;27;20199;-64
2023/02/01 12:21:21;;;;;;;13.73;4.78;;;;;;;;;;5135346;27;20214;-64
2023/02/01 12:23:56;;;;;;;9.32;3.65;;;;;;;;;;5134791;27;20629;-64
2023/02/01 12:26:42;;;;;;;10.50;5.07;;;;;;;;;;5134268;27;20195;-64
2023/02/01 12:29:18;;;;;;;13.35;4.57;;;;;;;;;;5134693;27;20289;-64
2023/02/01 12:31:51;;;;;;;14.02;4.90;;;;;;;;;;5134723;27;20183;-64
2023/02/01 12:34:28;;;;;;;14.55;5.72;;;;;;;;;;5134751;27;20183;-64
2023/02/01 12:36:59;;;;;;;18.25;5.55;;;;;;;;;;5134700;27;20182;-65
2023/02/01 12:39:32;;;;;;;9.27;4.25;;;;;;;;;;5134226;27;20643;-65
2023/02/01 12:42:02;;;;;;;15.48;5.07;;;;;;;;;;5134422;27;20544;-65
2023/02/01 12:44:34;;;;;;;17.23;5.47;;;;;;;;;;5134647;27;20199;-65
2023/02/01 12:47:05;;;;;;;22.67;5.05;;;;;;;;;;5134536;27;20187;-65
2023/02/01 12:49:42;;;;;;;8.38;3.80;;;;;;;;;;5135053;27;20205;-65
2023/02/01 12:52:12;;;;;;;21.35;6.00;;;;;;;;;;5134357;28;20187;-65
2023/02/01 12:54:42;;;;;;;10.48;5.35;;;;;;;;;;5134667;28;20525;-65
2023/02/01 12:57:13;;;;;;;14.48;4.35;;;;;;;;;;5134375;28;20752;-65
2023/02/01 12:59:44;;;;;;;15.25;4.82;;;;;;;;;;5135177;28;20208;-64
2023/02/01 13:02:18;;;;;;;10.45;4.72;;;;;;;;;;5134030;28;20184;-64
2023/02/01 13:04:52;;;;;;;12.75;5.07;;;;;;;;;;5134694;28;20187;-64
2023/02/01 13:07:20;;;;;;;9.65;5.05;;;;;;;;;;5134002;28;20193;-64
2023/02/01 13:09:51;;;;;;;20.50;6.05;;;;;;;;;;5134022;28;20203;-64
2023/02/01 13:12:21;;;;;;;20.13;5.22;;;;;;;;;;5134216;28;20195;-64
2023/02/01 13:14:52;;;;;;;13.95;3.42;;;;;;;;;;5134238;28;20196;-64
2023/02/01 13:17:23;;;;;;;10.95;4.85;;;;;;;;;;5134423;28;20271;-64
2023/02/01 13:19:52;;;;;;;13.63;5.53;;;;;;;;;;5134635;28;20211;-64
2023/02/01 13:22:22;;;;;;;13.45;5.10;;;;;;;;;;5133825;28;20195;-64
2023/02/01 13:24:52;;;;;;;15.77;4.05;;;;;;;;;;5135508;27;20201;-64
2023/02/01 13:27:21;;;;;;;15.85;5.40;;;;;;;;;;5138227;27;20198;-64
2023/02/01 13:29:54;;;;;;;20.80;4.45;;;;;;;;;;5137809;27;20209;-64
2023/02/01 13:32:48;;;;;;;17.75;4.60;;;;;;;;;;5137747;27;20197;-64
2023/02/01 13:35:26;;;;;;;13.65;4.05;;;;;;;;;;5089942;27;20251;-64
2023/02/01 13:37:59;;;;;;;11.27;4.65;;;;;;;;;;5138315;27;20188;-64
2023/02/01 13:40:33;;;;;;;28.10;5.13;;;;;;;;;;5137533;27;20245;-63
2023/02/01 13:43:01;;;;;;;10.32;4.35;;;;;;;;;;5137902;27;20270;-64
2023/02/01 13:45:32;;;;;;;12.88;4.50;;;;;;;;;;5137553;27;20200;-63
2023/02/01 13:48:01;;;;;;;19.98;4.18;;;;;;;;;;5137728;27;20290;-63
2023/02/01 13:50:30;;;;;;;13.55;4.13;;;;;;;;;;5137475;27;20203;-63
2023/02/01 13:52:58;;;;;;;12.77;4.50;;;;;;;;;;5137699;27;20644;-65
2023/02/01 13:55:31;;;;;;;15.80;6.13;;;;;;;;;;5137660;27;20221;-64
2023/02/01 13:58:16;;;;;;;7.38;4.38;;;;;;;;;;5137090;27;20231;-65
2023/02/01 14:00:45;;;;;;;17.23;4.85;;;;;;;;;;5137793;27;20243;-64
2023/02/01 14:03:15;;;;;;;11.95;3.53;;;;;;;;;;5137028;27;20203;-68
2023/02/01 14:06:12;;;;;;;13.05;4.05;;;;;;;;;;5137472;27;20235;-64
2023/02/01 14:08:52;;;;;;;18.83;4.55;;;;;;;;;;5137446;27;20193;-65
2023/02/01 14:11:39;;;;;;;18.77;4.60;;;;;;;;;;5137321;27;20184;-65
2023/02/01 14:14:28;;;;;;;12.27;3.40;;;;;;;;;;5136746;27;20266;-65
2023/02/01 14:17:14;;;;;;;17.67;3.70;;;;;;;;;;5136718;27;20285;-65
2023/02/01 14:19:42;;;;;;;9.68;3.45;;;;;;;;;;5134677;27;20292;-65
2023/02/01 14:22:24;;;;;;;12.30;3.10;;;;;;;;;;5136091;27;20579;-65
2023/02/01 14:24:53;;;;;;;11.65;4.22;;;;;;;;;;5135734;27;20214;-66
2023/02/01 14:27:23;;;;;;;10.10;4.10;;;;;;;;;;5136192;27;20195;-66
2023/02/01 14:29:57;;;;;;;13.07;3.38;;;;;;;;;;5136153;27;20188;-66
2023/02/01 14:32:25;;;;;;;8.50;3.05;;;;;;;;;;5136198;27;20636;-65
2023/02/01 14:34:56;;;;;;;9.65;4.20;;;;;;;;;;5136158;27;20210;-66
2023/02/01 14:37:26;;;;;;;15.65;4.78;;;;;;;;;;5136522;27;20217;-65
2023/02/01 14:39:56;;;;;;;9.63;3.55;;;;;;;;;;5136249;27;20199;-66
2023/02/01 14:42:26;;;;;;;9.88;4.18;;;;;;;;;;5136539;27;20179;-65
2023/02/01 14:44:54;;;;;;;12.07;4.45;;;;;;;;;;5136364;27;20191;-64
2023/02/01 14:47:32;;;;;;;9.63;3.17;;;;;;;;;;5136561;27;20191;-65
2023/02/01 14:50:13;;;;;;;10.68;3.30;;;;;;;;;;5128601;27;20237;-65
2023/02/01 14:52:43;;;;;;;12.82;3.90;;;;;;;;;;5115923;28;20309;-65
2023/02/01 14:55:13;;;;;;;7.63;3.53;;;;;;;;;;5115446;28;20191;-64
2023/02/01 14:57:41;;;;;;;8.75;4.22;;;;;;;;;;5115452;28;20315;-65
2023/02/01 15:00:16;;;;;;;12.25;3.17;;;;;;;;;;5115236;28;20193;-64
2023/02/01 15:02:44;;;;;;;11.50;4.10;;;;;;;;;;5115674;28;20690;-64
2023/02/01 15:05:24;;;;;;;22.55;3.88;;;;;;;;;;5114916;28;20205;-64
2023/02/01 15:07:52;;;;;;;18.17;4.47;;;;;;;;;;5115818;28;20194;-64
2023/02/01 15:10:20;;;;;;;9.63;3.30;;;;;;;;;;5115188;28;20218;-64
2023/02/01 15:12:48;;;;;;;10.55;3.65;;;;;;;;;;5115546;28;20194;-64
2023/02/01 15:15:17;;;;;;;12.20;3.28;;;;;;;;;;5115006;28;20191;-65